createdAt,value
2023-01-25T00:00:01.699Z,103967.72
2023-01-25T00:02:28.482Z,103964.59
2023-01-25T00:04:55.071Z,103952.38
2023-01-25T00:07:21.727Z,103948.94
2023-01-25T00:09:48.179Z,103942.72
2023-01-25T00:12:14.832Z,103948.34
2023-01-25T00:14:41.454Z,103949.19
2023-01-25T00:17:07.979Z,103947.31
2023-01-25T00:19:34.498Z,103944.81
2023-01-25T00:22:01.012Z,103951.69
2023-01-25T00:24:27.549Z,103950.84
2023-01-25T00:26:54.208Z,103946.50
2023-01-25T00:29:20.731Z,103942.97
2023-01-25T00:32:10.338Z,103941.28
2023-01-25T00:34:50.772Z,103938.78
2023-01-25T00:37:28.391Z,103941.69
2023-01-25T00:39:54.863Z,103931.31
2023-01-25T00:42:21.551Z,103937.53
2023-01-25T00:44:48.816Z,103937.59
2023-01-25T00:47:16.208Z,103925.75
2023-01-25T00:49:44.507Z,103926.69
2023-01-25T00:52:11.951Z,103921.03
2023-01-25T00:54:39.055Z,103927.44
2023-01-25T00:57:05.809Z,103924.03
2023-01-25T00:59:32.755Z,103921.44
2023-01-25T01:01:59.265Z,103920.78
2023-01-25T01:04:26.218Z,103921.13
2023-01-25T01:06:54.002Z,103922.81
2023-01-25T01:09:22.375Z,103917.91
2023-01-25T01:11:49.575Z,103921.81
2023-01-25T01:14:16.060Z,103922.09
2023-01-25T01:16:42.699Z,103925.75
2023-01-25T01:19:09.711Z,103918.16
2023-01-25T01:21:36.348Z,103924.91
2023-01-25T01:24:02.946Z,103915.16
2023-01-25T01:26:29.434Z,103924.41
2023-01-25T01:28:55.946Z,103918.47
2023-01-25T01:31:24.069Z,103924.50
2023-01-25T01:33:55.860Z,103922.09
2023-01-25T01:36:25.435Z,103920.56
2023-01-25T01:38:52.229Z,103917.13
2023-01-25T01:41:20.009Z,103908.59
2023-01-25T01:43:46.966Z,103909.44
2023-01-25T01:46:28.875Z,103906.00
2023-01-25T01:49:11.376Z,103911.09
2023-01-25T01:51:45.385Z,103902.41
2023-01-25T01:54:18.496Z,103905.69
2023-01-25T01:56:51.101Z,103905.50
2023-01-25T01:59:19.150Z,103905.22
2023-01-25T02:01:46.677Z,103910.84
2023-01-25T02:04:15.557Z,103908.34
2023-01-25T02:06:53.622Z,103898.81
2023-01-25T02:09:24.085Z,103897.97
2023-01-25T02:11:52.799Z,103896.94
2023-01-25T02:14:20.606Z,103887.31
2023-01-25T02:16:47.605Z,103892.31
2023-01-25T02:19:41.618Z,103890.72
2023-01-25T02:22:16.330Z,103891.75
2023-01-25T02:24:50.780Z,103891.75
2023-01-25T02:27:19.037Z,103882.22
2023-01-25T02:29:45.849Z,103885.72
2023-01-25T02:32:13.604Z,103884.72
2023-01-25T02:34:40.185Z,103891.56
2023-01-25T02:37:06.676Z,103881.19
2023-01-25T02:39:33.410Z,103885.63
2023-01-25T02:41:59.981Z,103881.56
2023-01-25T02:44:34.410Z,103881.31
2023-01-25T02:47:01.057Z,103887.34
2023-01-25T02:49:27.631Z,103879.75
2023-01-25T02:51:57.358Z,103881.75
2023-01-25T02:54:26.096Z,103877.56
2023-01-25T02:56:53.059Z,103873.50
2023-01-25T02:59:19.542Z,103871.94
2023-01-25T03:01:46.484Z,103866.19
2023-01-25T03:04:13.696Z,103871.50
2023-01-25T03:06:41.168Z,103861.13
2023-01-25T03:09:11.462Z,103855.72
2023-01-25T03:11:38.019Z,103853.50
2023-01-25T03:14:04.880Z,103853.50
2023-01-25T03:16:32.057Z,103851.19
2023-01-25T03:18:58.636Z,103855.53
2023-01-25T03:21:25.318Z,103845.16
2023-01-25T03:23:57.844Z,103850.19
2023-01-25T03:26:26.018Z,103851.97
2023-01-25T03:28:52.515Z,103840.66
2023-01-25T03:31:19.395Z,103847.50
2023-01-25T03:33:46.451Z,103839.63
2023-01-25T03:36:13.273Z,103835.91
2023-01-25T03:38:39.926Z,103827.19
2023-01-25T03:41:06.870Z,103831.66
2023-01-25T03:43:33.299Z,103818.59
2023-01-25T03:46:01.574Z,103827.84
2023-01-25T03:48:28.820Z,103819.22
2023-01-25T03:50:57.946Z,103803.47
2023-01-25T03:53:30.131Z,103810.97
2023-01-25T03:56:11.873Z,103804.75
2023-01-25T03:58:39.443Z,103811.47
2023-01-25T04:01:07.767Z,103815.72
2023-01-25T04:03:34.789Z,103826.94
2023-01-25T04:06:01.849Z,103813.22
2023-01-25T04:08:28.844Z,103809.69
2023-01-25T04:11:00.799Z,103809.50
2023-01-25T04:13:27.879Z,103802.75
2023-01-25T04:15:54.702Z,103806.19
2023-01-25T04:18:21.815Z,103806.19
2023-01-25T04:20:56.118Z,103804.31
2023-01-25T04:23:24.130Z,103805.16
2023-01-25T04:26:05.872Z,103805.25
2023-01-25T04:28:34.336Z,103804.63
2023-01-25T04:31:01.720Z,103812.31
2023-01-25T04:33:28.251Z,103792.38
2023-01-25T04:35:54.778Z,103796.03
2023-01-25T04:38:21.560Z,103792.47
2023-01-25T04:40:48.151Z,103784.91
2023-01-25T04:43:16.289Z,103787.91
2023-01-25T04:45:43.073Z,103780.88
2023-01-25T04:48:11.483Z,103779.84
2023-01-25T04:50:39.247Z,103773.63
2023-01-25T04:53:06.670Z,103763.34
2023-01-25T04:55:34.295Z,103767.88
2023-01-25T04:58:01.354Z,103767.88
2023-01-25T05:00:29.126Z,103772.34
2023-01-25T05:02:56.089Z,103774.00
2023-01-25T05:05:22.965Z,103778.16
2023-01-25T05:07:49.574Z,103774.75
2023-01-25T05:10:16.154Z,103776.50
2023-01-25T05:12:43.271Z,103776.50
2023-01-25T05:15:10.623Z,103772.16
2023-01-25T05:17:37.365Z,103775.69
2023-01-25T05:20:04.717Z,103772.25
2023-01-25T05:22:31.484Z,103761.88
2023-01-25T05:24:59.249Z,103760.31
2023-01-25T05:27:25.897Z,103763.94
2023-01-25T05:29:52.402Z,103761.13
2023-01-25T05:32:21.773Z,103761.97
2023-01-25T05:34:49.085Z,103755.13
2023-01-25T05:37:17.819Z,103758.66
2023-01-25T05:39:44.382Z,103754.59
2023-01-25T05:42:16.395Z,103758.94
2023-01-25T05:44:46.096Z,103745.13
2023-01-25T05:47:15.761Z,103755.31
2023-01-25T05:49:42.358Z,103756.97
2023-01-25T05:52:14.459Z,103762.91
2023-01-25T05:54:41.071Z,103767.88
2023-01-25T05:57:07.566Z,103769.03
2023-01-25T05:59:34.107Z,103769.22
2023-01-25T06:02:00.630Z,103765.88
2023-01-25T06:04:27.084Z,103766.72
2023-01-25T06:06:53.559Z,103769.41
2023-01-25T06:09:20.021Z,103769.59
2023-01-25T06:11:46.534Z,103771.28
2023-01-25T06:14:13.232Z,103773.88
2023-01-25T06:16:39.919Z,103772.19
2023-01-25T06:19:08.141Z,103773.13
2023-01-25T06:21:38.524Z,103772.94
2023-01-25T06:24:05.465Z,103770.25
2023-01-25T06:26:32.123Z,103769.41
2023-01-25T06:28:58.732Z,103768.97
2023-01-25T06:31:25.467Z,103778.50
2023-01-25T06:33:52.673Z,103778.50
2023-01-25T06:36:20.849Z,103770.72
2023-01-25T06:38:51.807Z,103768.97
2023-01-25T06:41:19.834Z,103769.81
2023-01-25T06:43:47.804Z,103771.66
2023-01-25T06:46:14.442Z,103770.81
2023-01-25T06:48:42.950Z,103764.63
2023-01-25T06:51:11.968Z,103761.28
2023-01-25T06:53:41.552Z,103772.78
2023-01-25T06:56:13.670Z,103768.22
2023-01-25T06:58:40.866Z,103766.47
2023-01-25T07:01:22.472Z,103768.13
2023-01-25T07:03:50.260Z,103763.16
2023-01-25T07:06:17.005Z,103773.53
2023-01-25T07:08:43.769Z,103761.59
2023-01-25T07:11:13.871Z,103758.25
2023-01-25T07:13:47.882Z,103749.66
2023-01-25T07:16:18.217Z,103748.91
2023-01-25T07:18:44.888Z,103742.38
2023-01-25T07:21:21.377Z,103745.63
2023-01-25T07:23:49.647Z,103742.19
2023-01-25T07:26:24.978Z,103747.50
2023-01-25T07:28:53.311Z,103742.25
2023-01-25T07:31:20.749Z,103749.19
2023-01-25T07:33:52.060Z,103754.75
2023-01-25T07:36:19.454Z,103756.13
2023-01-25T07:38:46.240Z,103749.81
2023-01-25T07:41:13.245Z,103744.28
2023-01-25T07:43:39.967Z,103756.78
2023-01-25T07:46:11.083Z,103751.78
2023-01-25T07:48:38.583Z,103743.72
2023-01-25T07:51:22.509Z,103732.97
2023-01-25T07:54:03.167Z,103739.72
2023-01-25T07:56:35.362Z,103739.44
2023-01-25T07:59:08.204Z,103730.75
2023-01-25T08:01:35.069Z,103729.06
2023-01-25T08:04:02.368Z,103722.88
2023-01-25T08:06:39.111Z,103717.47
2023-01-25T08:09:09.847Z,103711.38
2023-01-25T08:11:36.471Z,103719.16
2023-01-25T08:14:03.318Z,103713.03
2023-01-25T08:16:31.582Z,103722.66
2023-01-25T08:19:00.535Z,103716.47
2023-01-25T08:21:31.455Z,103717.47
2023-01-25T08:23:59.938Z,103715.72
2023-01-25T08:26:26.945Z,103719.16
2023-01-25T08:28:54.133Z,103725.38
2023-01-25T08:31:23.665Z,103721.19
2023-01-25T08:33:51.311Z,103724.72
2023-01-25T08:36:19.024Z,103724.72
2023-01-25T08:38:46.921Z,103726.19
2023-01-25T08:41:19.497Z,103723.22
2023-01-25T08:43:46.914Z,103718.63
2023-01-25T08:46:15.546Z,103715.00
2023-01-25T08:48:42.017Z,103716.88
2023-01-25T08:51:11.312Z,103707.13
2023-01-25T08:53:38.071Z,103706.81
2023-01-25T08:56:06.980Z,103701.31
2023-01-25T08:58:34.746Z,103693.88
2023-01-25T09:01:03.681Z,103690.34
2023-01-25T09:03:30.648Z,103689.41
2023-01-25T09:05:57.640Z,103689.72
2023-01-25T09:08:24.197Z,103689.81
2023-01-25T09:10:50.679Z,103694.16
2023-01-25T09:13:17.424Z,103696.56
2023-01-25T09:15:44.521Z,103688.34
2023-01-25T09:18:11.672Z,103692.50
2023-01-25T09:20:39.421Z,103682.75
2023-01-25T09:23:06.018Z,103685.88
2023-01-25T09:25:32.471Z,103679.56
2023-01-25T09:27:59.014Z,103672.31
2023-01-25T09:30:37.267Z,103676.47
2023-01-25T09:33:04.893Z,103678.13
2023-01-25T09:35:31.459Z,103674.50
2023-01-25T09:37:58.157Z,103673.47
2023-01-25T09:40:30.973Z,103679.28
2023-01-25T09:43:00.450Z,103677.63
2023-01-25T09:45:36.711Z,103666.09
2023-01-25T09:48:36.367Z,103665.88
2023-01-25T09:51:32.517Z,103667.53
2023-01-25T09:53:59.919Z,103661.84
2023-01-25T09:56:30.614Z,103658.94
2023-01-25T09:59:04.750Z,103660.81
2023-01-25T10:01:38.549Z,103663.59
2023-01-25T10:04:18.850Z,103661.31
2023-01-25T10:07:00.909Z,103666.19
2023-01-25T10:09:39.853Z,103655.63
2023-01-25T10:12:18.615Z,103646.69
2023-01-25T10:14:45.424Z,103640.38
2023-01-25T10:17:28.577Z,103635.38
2023-01-25T10:20:18.179Z,103630.09
2023-01-25T10:23:08.461Z,103627.50
2023-01-25T10:25:41.596Z,103629.16
2023-01-25T10:28:25.747Z,103626.56
2023-01-25T10:31:00.994Z,103617.00
2023-01-25T10:33:29.720Z,103616.06
2023-01-25T10:36:00.069Z,103607.56
2023-01-25T10:38:37.008Z,103604.44
2023-01-25T10:41:29.909Z,103602.78
2023-01-25T10:44:25.673Z,103602.38
2023-01-25T10:46:58.216Z,103600.06
2023-01-25T10:49:33.741Z,103598.06
2023-01-25T10:52:22.545Z,103594.66
2023-01-25T10:55:05.165Z,103593.03
2023-01-25T10:57:32.867Z,103582.63
2023-01-25T11:00:02.631Z,103582.63
2023-01-25T11:02:45.331Z,103579.31
2023-01-25T11:05:35.172Z,103572.88
2023-01-25T11:08:31.899Z,103558.78
2023-01-25T11:10:59.574Z,103549.75
2023-01-25T11:13:40.538Z,103553.59
2023-01-25T11:16:20.581Z,103534.16
2023-01-25T11:18:55.085Z,103538.97
2023-01-25T11:21:31.028Z,103529.31
2023-01-25T11:24:06.957Z,103526.59
2023-01-25T11:26:36.350Z,103530.13
2023-01-25T11:29:15.183Z,103514.25
2023-01-25T11:31:46.294Z,103505.97
2023-01-25T11:34:16.533Z,103500.78
2023-01-25T11:36:47.677Z,103495.53
2023-01-25T11:39:14.093Z,103491.34
2023-01-25T11:42:18.218Z,103479.31
2023-01-25T11:44:50.809Z,103478.38
2023-01-25T11:47:35.534Z,103470.16
2023-01-25T11:50:02.004Z,103460.41
2023-01-25T11:52:43.579Z,103453.81
2023-01-25T11:55:51.557Z,103444.53
2023-01-25T11:58:50.194Z,103434.13
2023-01-25T12:01:32.003Z,103427.16
2023-01-25T12:04:33.114Z,103413.38
2023-01-25T12:07:05.454Z,103398.19
2023-01-25T12:10:01.693Z,103395.25
2023-01-25T12:12:47.577Z,103393.38
2023-01-25T12:15:38.033Z,103394.09
2023-01-25T12:18:47.398Z,103389.13
2023-01-25T12:21:32.740Z,103370.25
2023-01-25T12:24:16.625Z,103368.47
2023-01-25T12:27:05.701Z,103358.94
2023-01-25T12:29:42.985Z,103361.03
2023-01-25T12:32:31.179Z,103358.34
2023-01-25T12:35:19.559Z,103355.84
2023-01-25T12:37:48.020Z,103352.56
2023-01-25T12:40:36.360Z,103354.47
2023-01-25T12:43:03.755Z,103341.25
2023-01-25T12:45:37.901Z,103342.09
2023-01-25T12:48:30.015Z,103334.41
2023-01-25T12:50:58.797Z,103332.66
2023-01-25T12:53:44.770Z,103319.78
2023-01-25T12:56:34.483Z,103317.75
2023-01-25T12:59:16.936Z,103305.94
2023-01-25T13:01:55.753Z,103299.91
2023-01-25T13:04:59.527Z,103294.22
2023-01-25T13:07:54.346Z,103295.78
2023-01-25T13:10:27.218Z,103293.06
2023-01-25T13:12:56.943Z,103282.69
2023-01-25T13:15:41.816Z,103285.63
2023-01-25T13:18:31.162Z,103290.44
2023-01-25T13:21:00.365Z,103299.38
2023-01-25T13:23:45.940Z,103292.78
2023-01-25T13:26:21.802Z,103295.59
2023-01-25T13:28:53.344Z,103290.97
2023-01-25T13:31:51.032Z,103284.28
2023-01-25T13:34:40.363Z,103278.16
2023-01-25T13:37:21.927Z,103271.78
2023-01-25T13:40:10.766Z,103270.94
2023-01-25T13:42:39.522Z,103264.72
2023-01-25T13:45:20.862Z,103266.13
2023-01-25T13:48:19.098Z,103257.66
2023-01-25T13:50:50.174Z,103255.16
2023-01-25T13:53:16.724Z,103250.69
2023-01-25T13:55:51.763Z,103252.34
2023-01-25T13:58:30.522Z,103239.25
2023-01-25T14:01:06.847Z,103239.72
2023-01-25T14:03:42.801Z,103232.88
2023-01-25T14:06:17.805Z,103239.38
2023-01-25T14:08:46.118Z,103230.38
2023-01-25T14:11:21.133Z,103237.78
2023-01-25T14:14:16.353Z,103225.25
2023-01-25T14:16:43.046Z,103228.56
2023-01-25T14:19:23.480Z,103232.09
2023-01-25T14:21:50.405Z,103224.53
2023-01-25T14:24:19.173Z,103224.03
2023-01-25T14:26:47.406Z,103213.88
2023-01-25T14:29:35.270Z,103216.47
2023-01-25T14:32:02.641Z,103209.19
2023-01-25T14:34:29.186Z,103224.53
2023-01-25T14:37:14.678Z,103221.44
2023-01-25T14:39:41.226Z,103213.88
2023-01-25T14:42:08.134Z,103221.66
2023-01-25T14:44:34.785Z,103224.88
2023-01-25T14:47:37.527Z,103215.22
2023-01-25T14:50:35.971Z,103214.88
2023-01-25T14:53:20.159Z,103223.59
2023-01-25T14:55:49.363Z,103225.69
2023-01-25T14:58:22.131Z,103221.56
2023-01-25T15:00:53.456Z,103220.41
2023-01-25T15:03:22.467Z,103218.53
2023-01-25T15:05:49.436Z,103215.31
2023-01-25T15:08:28.704Z,103209.31
2023-01-25T15:10:57.747Z,103216.03
2023-01-25T15:13:26.534Z,103213.66
2023-01-25T15:16:04.091Z,103210.25
2023-01-25T15:18:45.603Z,103203.41
2023-01-25T15:21:17.139Z,103208.72
2023-01-25T15:23:46.101Z,103200.00
2023-01-25T15:26:20.618Z,103190.34
2023-01-25T15:28:47.948Z,103188.56
2023-01-25T15:31:18.103Z,103181.97
2023-01-25T15:33:44.802Z,103178.69
2023-01-25T15:36:14.517Z,103185.97
2023-01-25T15:38:41.528Z,103179.94
2023-01-25T15:41:08.249Z,103175.81
2023-01-25T15:43:34.857Z,103180.41
2023-01-25T15:46:01.559Z,103180.41
2023-01-25T15:48:33.780Z,103170.47
2023-01-25T15:51:00.493Z,103165.94
2023-01-25T15:53:27.239Z,103159.59
2023-01-25T15:56:15.900Z,103165.00
2023-01-25T15:58:45.676Z,103167.16
2023-01-25T16:01:12.437Z,103168.81
2023-01-25T16:03:41.616Z,103183.44
2023-01-25T16:06:25.039Z,103187.91
2023-01-25T16:08:51.755Z,103184.47
2023-01-25T16:11:18.501Z,103180.44
2023-01-25T16:13:45.039Z,103185.50
2023-01-25T16:16:22.404Z,103188.19
2023-01-25T16:18:49.392Z,103192.53
2023-01-25T16:21:16.122Z,103182.41
2023-01-25T16:23:42.888Z,103190.88
2023-01-25T16:26:20.631Z,103201.97
2023-01-25T16:28:47.136Z,103193.59
2023-01-25T16:31:30.211Z,103186.66
2023-01-25T16:33:57.558Z,103193.47
2023-01-25T16:36:24.993Z,103183.13
2023-01-25T16:38:51.628Z,103178.66
2023-01-25T16:41:18.804Z,103168.88
2023-01-25T16:43:48.011Z,103171.34
2023-01-25T16:46:14.675Z,103177.13
2023-01-25T16:48:41.243Z,103176.19
2023-01-25T16:51:15.579Z,103165.00
2023-01-25T16:53:42.835Z,103153.00
2023-01-25T16:56:16.430Z,103145.31
2023-01-25T16:58:42.948Z,103145.44
2023-01-25T17:01:10.957Z,103133.09
2023-01-25T17:03:37.989Z,103128.50
2023-01-25T17:06:05.911Z,103120.84
2023-01-25T17:08:33.037Z,103104.38
2023-01-25T17:11:04.756Z,103100.00
2023-01-25T17:13:31.395Z,103094.94
2023-01-25T17:15:57.930Z,103087.28
2023-01-25T17:18:24.573Z,103085.28
2023-01-25T17:20:58.857Z,103072.31
2023-01-25T17:23:25.403Z,103053.59
2023-01-25T17:25:52.093Z,103058.16
2023-01-25T17:28:18.604Z,103038.38
2023-01-25T17:30:45.144Z,103037.31
2023-01-25T17:33:12.888Z,103026.03
2023-01-25T17:35:39.591Z,103027.69
2023-01-25T17:38:07.935Z,103009.44
2023-01-25T17:40:36.508Z,103012.97
2023-01-25T17:43:04.180Z,102996.81
2023-01-25T17:45:31.320Z,102998.81
2023-01-25T17:47:57.812Z,102982.31
2023-01-25T17:50:24.253Z,102982.44
2023-01-25T17:52:51.549Z,102981.50
2023-01-25T17:55:18.099Z,102977.97
2023-01-25T17:57:45.051Z,102971.72
2023-01-25T18:00:12.929Z,102973.38
2023-01-25T18:02:42.536Z,102983.75
2023-01-25T18:05:09.331Z,102983.50
2023-01-25T18:07:35.811Z,102978.34
2023-01-25T18:10:02.395Z,102979.38
2023-01-25T18:12:29.054Z,102968.44
2023-01-25T18:14:55.590Z,102968.19
2023-01-25T18:17:23.235Z,102963.00
2023-01-25T18:19:49.854Z,102962.19
2023-01-25T18:22:16.325Z,102949.13
2023-01-25T18:24:44.233Z,102951.59
2023-01-25T18:27:22.560Z,102937.94
2023-01-25T18:29:58.358Z,102941.34
2023-01-25T18:32:25.005Z,102941.22
2023-01-25T18:34:51.590Z,102942.28
2023-01-25T18:37:20.520Z,102936.28
2023-01-25T18:39:52.918Z,102939.56
2023-01-25T18:42:21.590Z,102935.34
2023-01-25T18:44:48.511Z,102934.41
2023-01-25T18:47:18.615Z,102930.03
2023-01-25T18:49:49.799Z,102931.81
2023-01-25T18:52:17.550Z,102936.88
2023-01-25T18:54:45.199Z,102939.56
2023-01-25T18:57:13.172Z,102933.56
2023-01-25T18:59:40.600Z,102931.91
2023-01-25T19:02:08.190Z,102930.28
2023-01-25T19:04:34.717Z,102925.91
2023-01-25T19:07:01.717Z,102923.44
2023-01-25T19:09:29.174Z,102917.44
2023-01-25T19:11:56.406Z,102913.91
2023-01-25T19:14:23.647Z,102919.91
2023-01-25T19:16:50.885Z,102913.91
2023-01-25T19:19:18.313Z,102908.72
2023-01-25T19:21:44.875Z,102915.53
2023-01-25T19:24:13.499Z,102917.31
2023-01-25T19:26:40.554Z,102900.00
2023-01-25T19:29:07.771Z,102897.19
2023-01-25T19:31:37.218Z,102890.22
2023-01-25T19:34:05.883Z,102895.41
2023-01-25T19:36:36.225Z,102889.41
2023-01-25T19:39:04.213Z,102882.81
2023-01-25T19:41:31.482Z,102879.97
2023-01-25T19:44:00.049Z,102868.78
2023-01-25T19:46:30.299Z,102868.69
2023-01-25T19:48:58.312Z,102867.03
2023-01-25T19:51:27.794Z,102876.44
2023-01-25T19:53:55.753Z,102875.38
2023-01-25T19:56:22.352Z,102865.84
2023-01-25T19:58:49.710Z,102861.59
2023-01-25T20:01:18.747Z,102864.91
2023-01-25T20:03:45.813Z,102863.25
2023-01-25T20:06:13.740Z,102859.84
2023-01-25T20:08:42.633Z,102846.88
2023-01-25T20:11:19.714Z,102837.34
2023-01-25T20:13:47.215Z,102845.25
2023-01-25T20:16:17.084Z,102848.53
2023-01-25T20:18:45.018Z,102851.00
2023-01-25T20:21:14.729Z,102854.53
2023-01-25T20:23:44.525Z,102854.31
2023-01-25T20:26:17.731Z,102846.41
2023-01-25T20:28:47.000Z,102841.34
2023-01-25T20:31:46.265Z,102835.22
2023-01-25T20:34:16.192Z,102830.88
2023-01-25T20:36:43.083Z,102826.63
2023-01-25T20:39:13.712Z,102835.47
2023-01-25T20:41:40.290Z,102833.56
2023-01-25T20:44:11.266Z,102829.34
2023-01-25T20:46:39.687Z,102829.34
2023-01-25T20:49:17.606Z,102829.22
2023-01-25T20:51:44.502Z,102829.22
2023-01-25T20:54:11.805Z,102823.22
2023-01-25T20:56:39.071Z,102823.91
2023-01-25T20:59:06.283Z,102818.72
2023-01-25T21:01:36.627Z,102824.84
2023-01-25T21:04:04.978Z,102829.34
2023-01-25T21:06:31.527Z,102831.09
2023-01-25T21:08:59.332Z,102830.03
2023-01-25T21:11:26.272Z,102825.91
2023-01-25T21:13:54.092Z,102817.31
2023-01-25T21:16:21.945Z,102814.72
2023-01-25T21:18:57.473Z,102824.03
2023-01-25T21:21:31.998Z,102820.38
2023-01-25T21:24:00.105Z,102818.63
2023-01-25T21:26:30.246Z,102812.59
2023-01-25T21:28:58.120Z,102816.97
2023-01-25T21:31:29.769Z,102808.38
2023-01-25T21:33:56.537Z,102812.72
2023-01-25T21:36:23.423Z,102804.94
2023-01-25T21:38:52.670Z,102806.59
2023-01-25T21:41:21.974Z,102799.75
2023-01-25T21:44:07.492Z,102801.53
2023-01-25T21:46:34.053Z,102807.41
2023-01-25T21:49:22.110Z,102814.25
2023-01-25T21:51:51.027Z,102811.53
2023-01-25T21:54:22.142Z,102805.53
2023-01-25T21:56:50.006Z,102799.66
2023-01-25T21:59:17.237Z,102803.06
2023-01-25T22:01:45.141Z,102798.69
2023-01-25T22:04:13.279Z,102801.28
2023-01-25T22:06:40.530Z,102795.16
2023-01-25T22:09:08.302Z,102794.34
2023-01-25T22:11:35.194Z,102799.41
2023-01-25T22:14:02.102Z,102791.88
2023-01-25T22:16:31.438Z,102795.16
2023-01-25T22:18:59.959Z,102788.09
2023-01-25T22:21:30.749Z,102788.91
2023-01-25T22:24:01.155Z,102791.28
2023-01-25T22:26:45.891Z,102782.56
2023-01-25T22:29:12.628Z,102780.06
2023-01-25T22:31:39.465Z,102777.50
2023-01-25T22:34:06.861Z,102781.72
2023-01-25T22:36:33.487Z,102780.78
2023-01-25T22:39:00.341Z,102773.72
2023-01-25T22:41:32.653Z,102766.06
2023-01-25T22:43:59.186Z,102760.75
2023-01-25T22:46:27.749Z,102754.63
2023-01-25T22:48:54.394Z,102755.44
2023-01-25T22:51:25.432Z,102747.78
2023-01-25T22:53:53.027Z,102751.09
2023-01-25T22:56:22.705Z,102746.03
2023-01-25T22:58:50.406Z,102739.06
2023-01-25T23:01:19.688Z,102733.75
2023-01-25T23:03:46.681Z,102726.00
2023-01-25T23:06:16.040Z,102733.75
2023-01-25T23:08:42.945Z,102726.94
2023-01-25T23:11:15.075Z,102732.00
2023-01-25T23:14:02.824Z,102726.81
2023-01-25T23:16:29.580Z,102726.00
2023-01-25T23:18:56.124Z,102723.28
2023-01-25T23:21:25.733Z,102716.44
2023-01-25T23:23:52.482Z,102718.75
2023-01-25T23:26:19.048Z,102718.75
2023-01-25T23:28:54.039Z,102716.16
2023-01-25T23:31:22.091Z,102713.44
2023-01-25T23:33:50.801Z,102711.69
2023-01-25T23:36:19.706Z,102710.72
2023-01-25T23:38:47.830Z,102708.03
2023-01-25T23:41:15.030Z,102702.00
2023-01-25T23:43:42.227Z,102705.44
2023-01-25T23:46:09.528Z,102697.66
2023-01-25T23:48:36.643Z,102686.47
2023-01-25T23:51:03.552Z,102688.09
2023-01-25T23:53:33.479Z,102696.00
2023-01-25T23:56:02.731Z,102682.09
2023-01-25T23:58:29.904Z,102689.06
